sensor_id;sensor_type;location;lat;lon;timestamp;P1;durP1;ratioP1;P2;durP2;ratioP2
20802;SDS011;10562;-33.856;151.182;2023-08-20T00:02:05;1.67;;;0.80;;
20802;SDS011;10562;-33.856;151.182;2023-08-20T00:04:39;0.90;;;0.60;;
20802;SDS011;10562;-33.856;151.182;2023-08-20T00:07:12;0.90;;;0.50;;
20802;SDS011;10562;-33.856;151.182;2023-08-20T00:09:44;0.68;;;0.50;;
20802;SDS011;10562;-33.856;151.182;2023-08-20T00:12:15;0.50;;;0.40;;
20802;SDS011;10562;-33.856;151.182;2023-08-20T00:14:54;0.45;;;0.45;;
20802;SDS011;10562;-33.856;151.182;2023-08-20T00:17:31;2.05;;;0.50;;
20802;SDS011;10562;-33.856;151.182;2023-08-20T00:20:02;0.50;;;0.40;;
20802;SDS011;10562;-33.856;151.182;2023-08-20T00:22:36;0.70;;;0.43;;
20802;SDS011;10562;-33.856;151.182;2023-08-20T00:25:08;0.55;;;0.47;;
20802;SDS011;10562;-33.856;151.182;2023-08-20T00:27:40;0.70;;;0.60;;
20802;SDS011;10562;-33.856;151.182;2023-08-20T00:30:14;0.77;;;0.60;;
20802;SDS011;10562;-33.856;151.182;2023-08-20T00:32:45;0.85;;;0.60;;
20802;SDS011;10562;-33.856;151.182;2023-08-20T00:35:16;0.77;;;0.40;;
20802;SDS011;10562;-33.856;151.182;2023-08-20T00:37:47;0.43;;;0.40;;
20802;SDS011;10562;-33.856;151.182;2023-08-20T00:40:18;0.45;;;0.45;;
20802;SDS011;10562;-33.856;151.182;2023-08-20T00:42:49;0.60;;;0.50;;
20802;SDS011;10562;-33.856;151.182;2023-08-20T00:45:22;0.65;;;0.50;;
20802;SDS011;10562;-33.856;151.182;2023-08-20T00:47:54;0.50;;;0.40;;
20802;SDS011;10562;-33.856;151.182;2023-08-20T00:50:25;1.13;;;0.70;;
20802;SDS011;10562;-33.856;151.182;2023-08-20T00:52:56;1.45;;;0.60;;
20802;SDS011;10562;-33.856;151.182;2023-08-20T00:55:27;1.10;;;0.60;;
20802;SDS011;10562;-33.856;151.182;2023-08-20T00:58:01;2.95;;;0.68;;
20802;SDS011;10562;-33.856;151.182;2023-08-20T01:00:34;1.23;;;0.65;;
20802;SDS011;10562;-33.856;151.182;2023-08-20T01:03:05;1.38;;;0.70;;
20802;SDS011;10562;-33.856;151.182;2023-08-20T01:05:38;1.63;;;0.80;;
20802;SDS011;10562;-33.856;151.182;2023-08-20T01:08:18;1.20;;;0.60;;
20802;SDS011;10562;-33.856;151.182;2023-08-20T01:10:59;1.23;;;0.60;;
20802;SDS011;10562;-33.856;151.182;2023-08-20T01:13:35;1.00;;;0.60;;
20802;SDS011;10562;-33.856;151.182;2023-08-20T01:16:08;2.70;;;0.60;;
20802;SDS011;10562;-33.856;151.182;2023-08-20T01:18:39;1.13;;;0.60;;
20802;SDS011;10562;-33.856;151.182;2023-08-20T01:21:15;1.50;;;0.70;;
20802;SDS011;10562;-33.856;151.182;2023-08-20T01:24:05;0.40;;;0.40;;
20802;SDS011;10562;-33.856;151.182;2023-08-20T01:26:58;1.40;;;0.60;;
20802;SDS011;10562;-33.856;151.182;2023-08-20T01:29:39;1.45;;;0.70;;
20802;SDS011;10562;-33.856;151.182;2023-08-20T01:32:10;1.25;;;0.75;;
20802;SDS011;10562;-33.856;151.182;2023-08-20T01:34:41;1.52;;;0.70;;
20802;SDS011;10562;-33.856;151.182;2023-08-20T01:37:12;0.68;;;0.60;;
20802;SDS011;10562;-33.856;151.182;2023-08-20T01:39:43;0.70;;;0.60;;
20802;SDS011;10562;-33.856;151.182;2023-08-20T01:42:14;2.90;;;0.73;;
20802;SDS011;10562;-33.856;151.182;2023-08-20T01:44:47;1.05;;;0.70;;
20802;SDS011;10562;-33.856;151.182;2023-08-20T01:47:18;1.40;;;0.70;;
20802;SDS011;10562;-33.856;151.182;2023-08-20T01:49:49;0.90;;;0.57;;
20802;SDS011;10562;-33.856;151.182;2023-08-20T01:52:20;0.82;;;0.70;;
20802;SDS011;10562;-33.856;151.182;2023-08-20T01:54:51;3.25;;;0.80;;
20802;SDS011;10562;-33.856;151.182;2023-08-20T01:57:22;0.60;;;0.60;;
20802;SDS011;10562;-33.856;151.182;2023-08-20T01:59:54;2.10;;;0.80;;
20802;SDS011;10562;-33.856;151.182;2023-08-20T02:02:26;1.08;;;0.65;;
20802;SDS011;10562;-33.856;151.182;2023-08-20T02:04:57;1.20;;;0.70;;
20802;SDS011;10562;-33.856;151.182;2023-08-20T02:07:29;1.27;;;0.65;;
20802;SDS011;10562;-33.856;151.182;2023-08-20T02:10:00;2.25;;;0.60;;
20802;SDS011;10562;-33.856;151.182;2023-08-20T02:12:31;5.20;;;2.15;;
20802;SDS011;10562;-33.856;151.182;2023-08-20T02:15:03;1.40;;;0.90;;
20802;SDS011;10562;-33.856;151.182;2023-08-20T02:17:35;2.22;;;1.20;;
20802;SDS011;10562;-33.856;151.182;2023-08-20T02:20:06;2.85;;;1.00;;
20802;SDS011;10562;-33.856;151.182;2023-08-20T02:22:38;1.20;;;0.80;;
20802;SDS011;10562;-33.856;151.182;2023-08-20T02:25:09;0.95;;;0.57;;
20802;SDS011;10562;-33.856;151.182;2023-08-20T02:27:39;0.82;;;0.70;;
20802;SDS011;10562;-33.856;151.182;2023-08-20T02:30:13;1.23;;;0.65;;
20802;SDS011;10562;-33.856;151.182;2023-08-20T02:32:44;1.02;;;0.60;;
20802;SDS011;10562;-33.856;151.182;2023-08-20T02:35:14;0.80;;;0.63;;
20802;SDS011;10562;-33.856;151.182;2023-08-20T02:37:45;0.77;;;0.60;;
20802;SDS011;10562;-33.856;151.182;2023-08-20T02:40:16;1.02;;;0.50;;
20802;SDS011;10562;-33.856;151.182;2023-08-20T02:42:47;1.80;;;0.55;;
20802;SDS011;10562;-33.856;151.182;2023-08-20T02:45:19;0.82;;;0.68;;
20802;SDS011;10562;-33.856;151.182;2023-08-20T02:47:50;1.88;;;0.70;;
20802;SDS011;10562;-33.856;151.182;2023-08-20T02:50:22;0.63;;;0.50;;
20802;SDS011;10562;-33.856;151.182;2023-08-20T02:52:53;1.88;;;0.73;;
20802;SDS011;10562;-33.856;151.182;2023-08-20T02:55:24;0.98;;;0.57;;
20802;SDS011;10562;-33.856;151.182;2023-08-20T02:57:55;2.85;;;0.60;;
20802;SDS011;10562;-33.856;151.182;2023-08-20T03:00:28;2.25;;;0.70;;
20802;SDS011;10562;-33.856;151.182;2023-08-20T03:03:00;0.82;;;0.50;;
20802;SDS011;10562;-33.856;151.182;2023-08-20T03:05:32;1.42;;;0.80;;
20802;SDS011;10562;-33.856;151.182;2023-08-20T03:08:03;3.25;;;0.80;;
20802;SDS011;10562;-33.856;151.182;2023-08-20T03:10:34;0.73;;;0.50;;
20802;SDS011;10562;-33.856;151.182;2023-08-20T03:13:05;1.00;;;0.60;;
20802;SDS011;10562;-33.856;151.182;2023-08-20T03:15:37;0.60;;;0.60;;
20802;SDS011;10562;-33.856;151.182;2023-08-20T03:18:08;0.95;;;0.60;;
20802;SDS011;10562;-33.856;151.182;2023-08-20T03:20:39;1.27;;;0.50;;
20802;SDS011;10562;-33.856;151.182;2023-08-20T03:23:10;1.05;;;0.32;;
20802;SDS011;10562;-33.856;151.182;2023-08-20T03:25:40;1.15;;;0.57;;
20802;SDS011;10562;-33.856;151.182;2023-08-20T03:28:11;0.82;;;0.60;;
20802;SDS011;10562;-33.856;151.182;2023-08-20T03:30:44;1.40;;;0.77;;
20802;SDS011;10562;-33.856;151.182;2023-08-20T03:33:15;1.00;;;0.70;;
20802;SDS011;10562;-33.856;151.182;2023-08-20T03:35:46;1.77;;;0.90;;
20802;SDS011;10562;-33.856;151.182;2023-08-20T03:38:16;1.52;;;0.77;;
20802;SDS011;10562;-33.856;151.182;2023-08-20T03:40:48;2.47;;;0.90;;
20802;SDS011;10562;-33.856;151.182;2023-08-20T03:43:20;2.72;;;0.88;;
20802;SDS011;10562;-33.856;151.182;2023-08-20T03:45:53;1.30;;;0.73;;
20802;SDS011;10562;-33.856;151.182;2023-08-20T03:48:23;4.28;;;1.80;;
20802;SDS011;10562;-33.856;151.182;2023-08-20T03:50:54;5.50;;;2.10;;
20802;SDS011;10562;-33.856;151.182;2023-08-20T03:53:26;6.68;;;2.20;;
20802;SDS011;10562;-33.856;151.182;2023-08-20T03:55:56;6.05;;;2.70;;
20802;SDS011;10562;-33.856;151.182;2023-08-20T03:58:27;7.05;;;2.25;;
20802;SDS011;10562;-33.856;151.182;2023-08-20T04:01:00;3.58;;;1.50;;
20802;SDS011;10562;-33.856;151.182;2023-08-20T04:03:32;2.25;;;0.80;;
20802;SDS011;10562;-33.856;151.182;2023-08-20T04:06:03;1.98;;;0.80;;
20802;SDS011;10562;-33.856;151.182;2023-08-20T04:08:34;4.72;;;0.77;;
20802;SDS011;10562;-33.856;151.182;2023-08-20T04:11:05;3.80;;;0.70;;
20802;SDS011;10562;-33.856;151.182;2023-08-20T04:13:36;3.75;;;0.50;;
20802;SDS011;10562;-33.856;151.182;2023-08-20T04:16:11;1.48;;;0.63;;
20802;SDS011;10562;-33.856;151.182;2023-08-20T04:18:41;1.98;;;0.40;;
20802;SDS011;10562;-33.856;151.182;2023-08-20T04:21:12;1.30;;;0.40;;
20802;SDS011;10562;-33.856;151.182;2023-08-20T04:23:43;1.42;;;0.30;;
20802;SDS011;10562;-33.856;151.182;2023-08-20T04:26:17;1.00;;;0.50;;
20802;SDS011;10562;-33.856;151.182;2023-08-20T04:28:48;0.63;;;0.40;;
20802;SDS011;10562;-33.856;151.182;2023-08-20T04:31:20;3.08;;;0.50;;
20802;SDS011;10562;-33.856;151.182;2023-08-20T04:33:51;0.50;;;0.50;;
20802;SDS011;10562;-33.856;151.182;2023-08-20T04:36:22;1.15;;;0.50;;
20802;SDS011;10562;-33.856;151.182;2023-08-20T04:38:53;1.23;;;0.57;;
20802;SDS011;10562;-33.856;151.182;2023-08-20T04:41:23;3.33;;;0.70;;
20802;SDS011;10562;-33.856;151.182;2023-08-20T04:43:54;1.08;;;0.55;;
20802;SDS011;10562;-33.856;151.182;2023-08-20T04:46:27;0.90;;;0.45;;
20802;SDS011;10562;-33.856;151.182;2023-08-20T04:48:58;2.80;;;0.60;;
20802;SDS011;10562;-33.856;151.182;2023-08-20T04:51:29;8.05;;;0.80;;
20802;SDS011;10562;-33.856;151.182;2023-08-20T04:54:00;1.20;;;0.60;;
20802;SDS011;10562;-33.856;151.182;2023-08-20T04:56:30;3.00;;;0.57;;
20802;SDS011;10562;-33.856;151.182;2023-08-20T04:59:01;2.15;;;0.60;;
20802;SDS011;10562;-33.856;151.182;2023-08-20T05:01:34;2.80;;;0.60;;
20802;SDS011;10562;-33.856;151.182;2023-08-20T05:04:05;1.42;;;0.50;;
20802;SDS011;10562;-33.856;151.182;2023-08-20T05:06:36;0.93;;;0.43;;
20802;SDS011;10562;-33.856;151.182;2023-08-20T05:09:07;1.10;;;0.50;;
20802;SDS011;10562;-33.856;151.182;2023-08-20T05:11:38;2.20;;;0.60;;
20802;SDS011;10562;-33.856;151.182;2023-08-20T05:14:09;2.38;;;0.50;;
20802;SDS011;10562;-33.856;151.182;2023-08-20T05:16:42;1.00;;;0.57;;
20802;SDS011;10562;-33.856;151.182;2023-08-20T05:19:13;1.10;;;0.43;;
20802;SDS011;10562;-33.856;151.182;2023-08-20T05:21:43;1.25;;;0.52;;
20802;SDS011;10562;-33.856;151.182;2023-08-20T05:24:14;3.28;;;0.60;;
20802;SDS011;10562;-33.856;151.182;2023-08-20T05:26:45;3.08;;;0.60;;
20802;SDS011;10562;-33.856;151.182;2023-08-20T05:29:16;1.75;;;0.70;;
20802;SDS011;10562;-33.856;151.182;2023-08-20T05:31:48;2.70;;;0.80;;
20802;SDS011;10562;-33.856;151.182;2023-08-20T05:34:18;2.03;;;0.70;;
20802;SDS011;10562;-33.856;151.182;2023-08-20T05:36:48;1.90;;;0.75;;
20802;SDS011;10562;-33.856;151.182;2023-08-20T05:39:19;2.25;;;0.57;;
20802;SDS011;10562;-33.856;151.182;2023-08-20T05:41:51;3.20;;;0.60;;
20802;SDS011;10562;-33.856;151.182;2023-08-20T05:44:22;2.33;;;0.60;;
20802;SDS011;10562;-33.856;151.182;2023-08-20T05:46:55;1.52;;;0.50;;
20802;SDS011;10562;-33.856;151.182;2023-08-20T05:49:27;2.53;;;0.50;;
20802;SDS011;10562;-33.856;151.182;2023-08-20T05:51:58;1.17;;;0.60;;
20802;SDS011;10562;-33.856;151.182;2023-08-20T05:54:28;2.22;;;0.60;;
20802;SDS011;10562;-33.856;151.182;2023-08-20T05:56:59;1.52;;;0.60;;
20802;SDS011;10562;-33.856;151.182;2023-08-20T05:59:30;2.15;;;0.50;;
20802;SDS011;10562;-33.856;151.182;2023-08-20T06:02:03;1.20;;;0.50;;
20802;SDS011;10562;-33.856;151.182;2023-08-20T06:04:34;1.67;;;0.70;;
20802;SDS011;10562;-33.856;151.182;2023-08-20T06:07:04;0.88;;;0.60;;
20802;SDS011;10562;-33.856;151.182;2023-08-20T06:09:35;2.17;;;0.60;;
20802;SDS011;10562;-33.856;151.182;2023-08-20T06:12:06;1.42;;;0.70;;
20802;SDS011;10562;-33.856;151.182;2023-08-20T06:14:37;0.85;;;0.52;;
20802;SDS011;10562;-33.856;151.182;2023-08-20T06:17:10;0.68;;;0.40;;
20802;SDS011;10562;-33.856;151.182;2023-08-20T06:19:41;2.50;;;0.40;;
20802;SDS011;10562;-33.856;151.182;2023-08-20T06:22:13;0.98;;;0.50;;
20802;SDS011;10562;-33.856;151.182;2023-08-20T06:24:44;0.47;;;0.30;;
20802;SDS011;10562;-33.856;151.182;2023-08-20T06:27:14;0.65;;;0.50;;
20802;SDS011;10562;-33.856;151.182;2023-08-20T06:29:45;0.70;;;0.50;;
20802;SDS011;10562;-33.856;151.182;2023-08-20T06:32:18;1.65;;;0.60;;
20802;SDS011;10562;-33.856;151.182;2023-08-20T06:34:49;0.50;;;0.50;;
20802;SDS011;10562;-33.856;151.182;2023-08-20T06:37:22;0.98;;;0.40;;
20802;SDS011;10562;-33.856;151.182;2023-08-20T06:39:53;2.55;;;0.50;;
20802;SDS011;10562;-33.856;151.182;2023-08-20T06:42:24;1.13;;;0.50;;
20802;SDS011;10562;-33.856;151.182;2023-08-20T06:44:55;0.63;;;0.50;;
20802;SDS011;10562;-33.856;151.182;2023-08-20T06:47:27;1.73;;;0.60;;
20802;SDS011;10562;-33.856;151.182;2023-08-20T06:49:59;0.55;;;0.55;;
20802;SDS011;10562;-33.856;151.182;2023-08-20T06:52:30;1.05;;;0.57;;
20802;SDS011;10562;-33.856;151.182;2023-08-20T06:55:00;0.85;;;0.50;;
20802;SDS011;10562;-33.856;151.182;2023-08-20T06:57:31;1.58;;;0.70;;
20802;SDS011;10562;-33.856;151.182;2023-08-20T07:00:02;1.02;;;0.70;;
20802;SDS011;10562;-33.856;151.182;2023-08-20T07:02:35;1.00;;;0.80;;
20802;SDS011;10562;-33.856;151.182;2023-08-20T07:05:06;1.88;;;0.68;;
20802;SDS011;10562;-33.856;151.182;2023-08-20T07:07:37;1.20;;;0.70;;
20802;SDS011;10562;-33.856;151.182;2023-08-20T07:10:08;2.38;;;0.80;;
20802;SDS011;10562;-33.856;151.182;2023-08-20T07:12:39;3.15;;;0.80;;
20802;SDS011;10562;-33.856;151.182;2023-08-20T07:15:10;4.03;;;0.90;;
20802;SDS011;10562;-33.856;151.182;2023-08-20T07:17:43;4.00;;;2.08;;
20802;SDS011;10562;-33.856;151.182;2023-08-20T07:20:14;6.78;;;2.15;;
20802;SDS011;10562;-33.856;151.182;2023-08-20T07:22:45;3.10;;;2.10;;
20802;SDS011;10562;-33.856;151.182;2023-08-20T07:25:16;3.50;;;1.50;;
20802;SDS011;10562;-33.856;151.182;2023-08-20T07:27:47;1.35;;;0.80;;
20802;SDS011;10562;-33.856;151.182;2023-08-20T07:30:18;1.17;;;0.60;;
20802;SDS011;10562;-33.856;151.182;2023-08-20T07:32:50;1.52;;;0.70;;
20802;SDS011;10562;-33.856;151.182;2023-08-20T07:35:21;2.80;;;0.80;;
20802;SDS011;10562;-33.856;151.182;2023-08-20T07:37:52;3.30;;;0.70;;
20802;SDS011;10562;-33.856;151.182;2023-08-20T07:40:23;1.88;;;0.70;;
20802;SDS011;10562;-33.856;151.182;2023-08-20T07:42:53;2.33;;;0.75;;
20802;SDS011;10562;-33.856;151.182;2023-08-20T07:45:24;3.25;;;1.00;;
20802;SDS011;10562;-33.856;151.182;2023-08-20T07:47:57;2.30;;;1.00;;
20802;SDS011;10562;-33.856;151.182;2023-08-20T07:50:28;2.53;;;0.95;;
20802;SDS011;10562;-33.856;151.182;2023-08-20T07:52:59;2.28;;;0.90;;
20802;SDS011;10562;-33.856;151.182;2023-08-20T07:55:30;2.92;;;1.10;;
20802;SDS011;10562;-33.856;151.182;2023-08-20T07:58:00;2.30;;;1.20;;
20802;SDS011;10562;-33.856;151.182;2023-08-20T08:00:31;2.10;;;1.10;;
20802;SDS011;10562;-33.856;151.182;2023-08-20T08:03:04;2.75;;;1.20;;
20802;SDS011;10562;-33.856;151.182;2023-08-20T08:05:35;2.92;;;1.30;;
20802;SDS011;10562;-33.856;151.182;2023-08-20T08:08:06;3.40;;;1.10;;
20802;SDS011;10562;-33.856;151.182;2023-08-20T08:10:37;3.60;;;1.02;;
20802;SDS011;10562;-33.856;151.182;2023-08-20T08:13:10;2.92;;;0.90;;
20802;SDS011;10562;-33.856;151.182;2023-08-20T08:15:41;2.88;;;1.10;;
20802;SDS011;10562;-33.856;151.182;2023-08-20T08:18:14;7.88;;;1.30;;
20802;SDS011;10562;-33.856;151.182;2023-08-20T08:20:45;3.30;;;1.10;;
20802;SDS011;10562;-33.856;151.182;2023-08-20T08:23:16;5.70;;;1.25;;
20802;SDS011;10562;-33.856;151.182;2023-08-20T08:25:47;3.50;;;1.10;;
20802;SDS011;10562;-33.856;151.182;2023-08-20T08:28:18;3.85;;;1.20;;
20802;SDS011;10562;-33.856;151.182;2023-08-20T08:30:48;4.20;;;1.77;;
20802;SDS011;10562;-33.856;151.182;2023-08-20T08:33:21;4.95;;;1.50;;
20802;SDS011;10562;-33.856;151.182;2023-08-20T08:35:52;3.78;;;1.30;;
20802;SDS011;10562;-33.856;151.182;2023-08-20T08:38:25;3.70;;;1.02;;
20802;SDS011;10562;-33.856;151.182;2023-08-20T08:40:56;3.60;;;1.27;;
20802;SDS011;10562;-33.856;151.182;2023-08-20T08:43:28;4.72;;;1.60;;
20802;SDS011;10562;-33.856;151.182;2023-08-20T08:46:00;4.35;;;1.65;;
20802;SDS011;10562;-33.856;151.182;2023-08-20T08:48:35;7.25;;;3.70;;
20802;SDS011;10562;-33.856;151.182;2023-08-20T08:51:08;7.93;;;4.30;;
20802;SDS011;10562;-33.856;151.182;2023-08-20T08:53:40;5.78;;;1.80;;
20802;SDS011;10562;-33.856;151.182;2023-08-20T08:56:12;2.92;;;1.33;;
20802;SDS011;10562;-33.856;151.182;2023-08-20T08:58:43;2.45;;;1.33;;
20802;SDS011;10562;-33.856;151.182;2023-08-20T09:01:14;4.13;;;1.30;;
20802;SDS011;10562;-33.856;151.182;2023-08-20T09:03:46;6.63;;;1.70;;
20802;SDS011;10562;-33.856;151.182;2023-08-20T09:06:18;6.18;;;2.40;;
20802;SDS011;10562;-33.856;151.182;2023-08-20T09:08:49;6.57;;;2.67;;
20802;SDS011;10562;-33.856;151.182;2023-08-20T09:11:35;3.60;;;1.90;;
20802;SDS011;10562;-33.856;151.182;2023-08-20T09:14:05;8.38;;;2.10;;
20802;SDS011;10562;-33.856;151.182;2023-08-20T09:16:36;5.85;;;1.55;;
20802;SDS011;10562;-33.856;151.182;2023-08-20T09:19:09;6.63;;;1.45;;
20802;SDS011;10562;-33.856;151.182;2023-08-20T09:21:40;4.43;;;1.35;;
20802;SDS011;10562;-33.856;151.182;2023-08-20T09:24:25;3.97;;;1.20;;
20802;SDS011;10562;-33.856;151.182;2023-08-20T09:27:03;4.38;;;1.67;;
20802;SDS011;10562;-33.856;151.182;2023-08-20T09:29:34;4.85;;;1.40;;
20802;SDS011;10562;-33.856;151.182;2023-08-20T09:32:17;3.78;;;1.80;;
20802;SDS011;10562;-33.856;151.182;2023-08-20T09:34:50;5.10;;;1.60;;
20802;SDS011;10562;-33.856;151.182;2023-08-20T09:37:22;6.55;;;1.55;;
20802;SDS011;10562;-33.856;151.182;2023-08-20T09:39:54;2.78;;;1.30;;
20802;SDS011;10562;-33.856;151.182;2023-08-20T09:42:25;4.32;;;1.60;;
20802;SDS011;10562;-33.856;151.182;2023-08-20T09:44:56;4.68;;;2.03;;
20802;SDS011;10562;-33.856;151.182;2023-08-20T09:47:31;4.47;;;1.63;;
20802;SDS011;10562;-33.856;151.182;2023-08-20T09:50:09;7.82;;;2.33;;
20802;SDS011;10562;-33.856;151.182;2023-08-20T09:52:43;4.55;;;1.70;;
20802;SDS011;10562;-33.856;151.182;2023-08-20T09:55:17;4.88;;;1.45;;
20802;SDS011;10562;-33.856;151.182;2023-08-20T09:57:50;2.80;;;1.48;;
20802;SDS011;10562;-33.856;151.182;2023-08-20T10:00:23;16.10;;;6.82;;
20802;SDS011;10562;-33.856;151.182;2023-08-20T10:02:56;14.95;;;4.78;;
20802;SDS011;10562;-33.856;151.182;2023-08-20T10:05:29;10.32;;;4.57;;
20802;SDS011;10562;-33.856;151.182;2023-08-20T10:08:00;5.63;;;2.20;;
20802;SDS011;10562;-33.856;151.182;2023-08-20T10:10:33;4.05;;;2.08;;
20802;SDS011;10562;-33.856;151.182;2023-08-20T10:13:04;5.65;;;2.20;;
20802;SDS011;10562;-33.856;151.182;2023-08-20T10:15:35;8.18;;;1.95;;
20802;SDS011;10562;-33.856;151.182;2023-08-20T10:18:08;7.22;;;1.80;;
20802;SDS011;10562;-33.856;151.182;2023-08-20T10:20:41;4.13;;;1.90;;
20802;SDS011;10562;-33.856;151.182;2023-08-20T10:23:13;4.95;;;2.20;;
20802;SDS011;10562;-33.856;151.182;2023-08-20T10:25:44;6.20;;;2.30;;
20802;SDS011;10562;-33.856;151.182;2023-08-20T10:28:20;4.93;;;2.05;;
20802;SDS011;10562;-33.856;151.182;2023-08-20T10:31:04;3.70;;;1.80;;
20802;SDS011;10562;-33.856;151.182;2023-08-20T10:33:37;4.90;;;2.10;;
20802;SDS011;10562;-33.856;151.182;2023-08-20T10:36:19;5.22;;;2.00;;
20802;SDS011;10562;-33.856;151.182;2023-08-20T10:38:54;3.92;;;1.70;;
20802;SDS011;10562;-33.856;151.182;2023-08-20T10:41:25;3.88;;;1.80;;
20802;SDS011;10562;-33.856;151.182;2023-08-20T10:43:57;4.47;;;1.88;;
20802;SDS011;10562;-33.856;151.182;2023-08-20T10:46:29;6.38;;;1.90;;
20802;SDS011;10562;-33.856;151.182;2023-08-20T10:49:02;4.00;;;1.67;;
20802;SDS011;10562;-33.856;151.182;2023-08-20T10:51:36;3.05;;;1.52;;
20802;SDS011;10562;-33.856;151.182;2023-08-20T10:54:09;4.03;;;1.77;;
20802;SDS011;10562;-33.856;151.182;2023-08-20T10:56:41;3.50;;;1.70;;
20802;SDS011;10562;-33.856;151.182;2023-08-20T10:59:15;3.30;;;1.75;;
20802;SDS011;10562;-33.856;151.182;2023-08-20T11:01:50;6.22;;;1.90;;
20802;SDS011;10562;-33.856;151.182;2023-08-20T11:04:21;3.50;;;1.60;;
20802;SDS011;10562;-33.856;151.182;2023-08-20T11:06:56;4.00;;;1.90;;
20802;SDS011;10562;-33.856;151.182;2023-08-20T11:09:27;4.28;;;1.90;;
20802;SDS011;10562;-33.856;151.182;2023-08-20T11:11:59;4.40;;;2.10;;
20802;SDS011;10562;-33.856;151.182;2023-08-20T11:14:30;3.85;;;1.90;;
20802;SDS011;10562;-33.856;151.182;2023-08-20T11:17:00;5.68;;;2.13;;
20802;SDS011;10562;-33.856;151.182;2023-08-20T11:19:31;3.33;;;1.90;;
20802;SDS011;10562;-33.856;151.182;2023-08-20T11:22:04;5.00;;;2.20;;
20802;SDS011;10562;-33.856;151.182;2023-08-20T11:24:35;4.60;;;1.95;;
20802;SDS011;10562;-33.856;151.182;2023-08-20T11:27:06;4.18;;;2.10;;
20802;SDS011;10562;-33.856;151.182;2023-08-20T11:29:37;4.05;;;1.88;;
20802;SDS011;10562;-33.856;151.182;2023-08-20T11:32:12;4.35;;;2.00;;
20802;SDS011;10562;-33.856;151.182;2023-08-20T11:34:44;5.63;;;2.35;;
20802;SDS011;10562;-33.856;151.182;2023-08-20T11:37:17;5.80;;;2.28;;
20802;SDS011;10562;-33.856;151.182;2023-08-20T11:39:50;5.22;;;2.20;;
20802;SDS011;10562;-33.856;151.182;2023-08-20T11:42:21;4.53;;;1.95;;
20802;SDS011;10562;-33.856;151.182;2023-08-20T11:44:55;4.15;;;1.70;;
20802;SDS011;10562;-33.856;151.182;2023-08-20T11:47:25;4.63;;;2.22;;
20802;SDS011;10562;-33.856;151.182;2023-08-20T11:50:03;4.22;;;2.08;;
20802;SDS011;10562;-33.856;151.182;2023-08-20T11:52:36;3.28;;;1.90;;
20802;SDS011;10562;-33.856;151.182;2023-08-20T11:55:08;3.92;;;1.70;;
20802;SDS011;10562;-33.856;151.182;2023-08-20T11:57:39;4.13;;;1.83;;
20802;SDS011;10562;-33.856;151.182;2023-08-20T12:00:10;4.80;;;2.17;;
20802;SDS011;10562;-33.856;151.182;2023-08-20T12:02:55;3.45;;;1.90;;
20802;SDS011;10562;-33.856;151.182;2023-08-20T12:05:29;4.80;;;2.20;;
20802;SDS011;10562;-33.856;151.182;2023-08-20T12:08:04;4.55;;;2.50;;
20802;SDS011;10562;-33.856;151.182;2023-08-20T12:10:35;5.45;;;2.15;;
20802;SDS011;10562;-33.856;151.182;2023-08-20T12:13:10;5.80;;;2.47;;
20802;SDS011;10562;-33.856;151.182;2023-08-20T12:15:41;5.07;;;2.13;;
20802;SDS011;10562;-33.856;151.182;2023-08-20T12:18:12;5.03;;;2.00;;
20802;SDS011;10562;-33.856;151.182;2023-08-20T12:20:42;3.97;;;2.00;;
20802;SDS011;10562;-33.856;151.182;2023-08-20T12:23:15;4.78;;;2.30;;
20802;SDS011;10562;-33.856;151.182;2023-08-20T12:25:49;3.90;;;2.05;;
20802;SDS011;10562;-33.856;151.182;2023-08-20T12:28:20;5.38;;;2.33;;
20802;SDS011;10562;-33.856;151.182;2023-08-20T12:30:52;5.97;;;2.28;;
20802;SDS011;10562;-33.856;151.182;2023-08-20T12:33:23;4.38;;;2.22;;
20802;SDS011;10562;-33.856;151.182;2023-08-20T12:35:54;5.05;;;2.30;;
20802;SDS011;10562;-33.856;151.182;2023-08-20T12:38:27;3.65;;;2.03;;
20802;SDS011;10562;-33.856;151.182;2023-08-20T12:41:00;6.40;;;2.15;;
20802;SDS011;10562;-33.856;151.182;2023-08-20T12:43:31;6.45;;;2.42;;
20802;SDS011;10562;-33.856;151.182;2023-08-20T12:46:02;3.65;;;1.90;;
20802;SDS011;10562;-33.856;151.182;2023-08-20T12:48:33;3.75;;;1.60;;
20802;SDS011;10562;-33.856;151.182;2023-08-20T12:51:05;3.50;;;1.70;;
20802;SDS011;10562;-33.856;151.182;2023-08-20T12:53:41;3.60;;;1.50;;
20802;SDS011;10562;-33.856;151.182;2023-08-20T12:56:12;4.47;;;1.65;;
20802;SDS011;10562;-33.856;151.182;2023-08-20T12:58:43;4.30;;;1.65;;
20802;SDS011;10562;-33.856;151.182;2023-08-20T13:01:13;3.53;;;1.40;;
20802;SDS011;10562;-33.856;151.182;2023-08-20T13:03:45;3.00;;;1.40;;
20802;SDS011;10562;-33.856;151.182;2023-08-20T13:06:16;3.72;;;1.80;;
20802;SDS011;10562;-33.856;151.182;2023-08-20T13:08:49;3.22;;;1.75;;
20802;SDS011;10562;-33.856;151.182;2023-08-20T13:11:21;5.45;;;1.58;;
20802;SDS011;10562;-33.856;151.182;2023-08-20T13:13:54;3.65;;;1.33;;
20802;SDS011;10562;-33.856;151.182;2023-08-20T13:16:25;2.70;;;1.42;;
20802;SDS011;10562;-33.856;151.182;2023-08-20T13:18:56;3.72;;;1.50;;
20802;SDS011;10562;-33.856;151.182;2023-08-20T13:21:27;4.40;;;1.30;;
20802;SDS011;10562;-33.856;151.182;2023-08-20T13:23:59;2.97;;;1.30;;
20802;SDS011;10562;-33.856;151.182;2023-08-20T13:26:30;6.13;;;1.42;;
20802;SDS011;10562;-33.856;151.182;2023-08-20T13:29:01;2.88;;;1.20;;
20802;SDS011;10562;-33.856;151.182;2023-08-20T13:31:32;2.92;;;1.50;;
20802;SDS011;10562;-33.856;151.182;2023-08-20T13:34:04;4.32;;;1.30;;
20802;SDS011;10562;-33.856;151.182;2023-08-20T13:36:35;3.72;;;1.30;;
20802;SDS011;10562;-33.856;151.182;2023-08-20T13:39:08;2.80;;;1.25;;
20802;SDS011;10562;-33.856;151.182;2023-08-20T13:41:39;4.03;;;1.30;;
20802;SDS011;10562;-33.856;151.182;2023-08-20T13:44:10;4.65;;;1.38;;
20802;SDS011;10562;-33.856;151.182;2023-08-20T13:46:41;4.13;;;1.20;;
20802;SDS011;10562;-33.856;151.182;2023-08-20T13:49:12;2.95;;;1.50;;
20802;SDS011;10562;-33.856;151.182;2023-08-20T13:51:43;3.65;;;1.60;;
20802;SDS011;10562;-33.856;151.182;2023-08-20T13:54:16;5.28;;;1.92;;
20802;SDS011;10562;-33.856;151.182;2023-08-20T13:56:47;4.15;;;1.63;;
20802;SDS011;10562;-33.856;151.182;2023-08-20T13:59:17;4.13;;;1.80;;
20802;SDS011;10562;-33.856;151.182;2023-08-20T14:01:48;6.13;;;1.70;;
20802;SDS011;10562;-33.856;151.182;2023-08-20T14:04:19;6.00;;;1.60;;
20802;SDS011;10562;-33.856;151.182;2023-08-20T14:06:50;3.67;;;1.70;;
20802;SDS011;10562;-33.856;151.182;2023-08-20T14:09:22;3.58;;;1.38;;
20802;SDS011;10562;-33.856;151.182;2023-08-20T14:11:54;2.10;;;1.23;;
20802;SDS011;10562;-33.856;151.182;2023-08-20T14:14:25;4.50;;;1.65;;
20802;SDS011;10562;-33.856;151.182;2023-08-20T14:16:55;4.38;;;1.30;;
20802;SDS011;10562;-33.856;151.182;2023-08-20T14:19:26;4.10;;;1.40;;
20802;SDS011;10562;-33.856;151.182;2023-08-20T14:21:57;4.05;;;1.98;;
20802;SDS011;10562;-33.856;151.182;2023-08-20T14:24:30;3.38;;;1.65;;
20802;SDS011;10562;-33.856;151.182;2023-08-20T14:27:01;5.35;;;1.58;;
20802;SDS011;10562;-33.856;151.182;2023-08-20T14:29:33;3.70;;;1.75;;
20802;SDS011;10562;-33.856;151.182;2023-08-20T14:32:04;6.57;;;1.80;;
20802;SDS011;10562;-33.856;151.182;2023-08-20T14:34:35;2.72;;;1.52;;
20802;SDS011;10562;-33.856;151.182;2023-08-20T14:37:06;3.30;;;1.50;;